createdAt,value
2022-10-05T00:01:32.561Z,12.23
2022-10-05T00:04:40.482Z,12.24
2022-10-05T00:07:48.639Z,12.34
2022-10-05T00:10:56.195Z,12.38
2022-10-05T00:14:04.614Z,12.45
2022-10-05T00:17:13.121Z,12.51
2022-10-05T00:20:20.662Z,12.56
2022-10-05T00:23:29.166Z,12.56
2022-10-05T00:26:37.077Z,12.52
2022-10-05T00:29:45.489Z,12.44
2022-10-05T00:32:58.648Z,12.34
2022-10-05T00:35:56.756Z,12.27
2022-10-05T00:39:05.225Z,12.23
2022-10-05T00:42:12.826Z,12.13
2022-10-05T00:45:20.815Z,12.12
2022-10-05T00:48:29.801Z,12.12
2022-10-05T00:51:37.214Z,12.02
2022-10-05T00:54:45.307Z,11.93
2022-10-05T00:57:53.071Z,11.86
2022-10-05T01:01:00.849Z,11.83
2022-10-05T01:04:08.906Z,11.83
2022-10-05T01:07:16.783Z,11.78
2022-10-05T01:10:24.175Z,11.75
2022-10-05T01:13:31.921Z,11.70
2022-10-05T01:16:39.446Z,11.75
2022-10-05T01:19:47.852Z,11.87
2022-10-05T01:22:56.375Z,11.94
2022-10-05T01:26:03.807Z,11.86
2022-10-05T01:29:12.102Z,11.78
2022-10-05T01:32:20.188Z,11.71
2022-10-05T01:35:27.750Z,11.64
2022-10-05T01:38:35.939Z,11.53
2022-10-05T01:41:43.888Z,11.41
2022-10-05T01:44:51.593Z,11.29
2022-10-05T01:47:59.914Z,11.20
2022-10-05T01:51:07.793Z,11.13
2022-10-05T01:54:15.507Z,11.09
2022-10-05T01:57:23.516Z,11.11
2022-10-05T02:00:31.349Z,11.13
2022-10-05T02:03:39.187Z,11.16
2022-10-05T02:06:47.048Z,11.20
2022-10-05T02:09:55.487Z,11.31
2022-10-05T02:13:03.489Z,11.39
2022-10-05T02:16:11.013Z,11.50
2022-10-05T02:19:19.198Z,11.53
2022-10-05T02:22:27.021Z,11.61
2022-10-05T02:25:34.289Z,11.67
2022-10-05T02:28:42.523Z,11.74
2022-10-05T02:31:50.386Z,11.82
2022-10-05T02:34:58.073Z,11.85
2022-10-05T02:38:06.354Z,11.83
2022-10-05T02:41:14.284Z,11.85
2022-10-05T02:44:22.093Z,11.86
2022-10-05T02:47:30.203Z,11.86
2022-10-05T02:50:38.116Z,11.82
2022-10-05T02:53:46.300Z,11.75
2022-10-05T02:56:53.936Z,11.74
2022-10-05T03:00:02.327Z,11.74
2022-10-05T03:03:10.029Z,11.70
2022-10-05T03:06:17.545Z,11.67
2022-10-05T03:09:25.741Z,11.61
2022-10-05T03:12:33.795Z,11.62
2022-10-05T03:15:41.613Z,11.65
2022-10-05T03:18:49.753Z,11.64
2022-10-05T03:21:57.172Z,11.67
2022-10-05T03:25:05.350Z,11.71
2022-10-05T03:28:13.448Z,11.72
2022-10-05T03:31:20.825Z,11.74
2022-10-05T03:34:29.140Z,11.72
2022-10-05T03:37:37.466Z,11.72
2022-10-05T03:40:44.879Z,11.70
2022-10-05T03:43:53.217Z,11.67
2022-10-05T03:47:00.928Z,11.70
2022-10-05T03:50:08.757Z,11.72
2022-10-05T03:53:17.004Z,11.72
2022-10-05T03:56:24.772Z,11.74
2022-10-05T03:59:32.908Z,11.74
2022-10-05T04:02:41.017Z,11.70
2022-10-05T04:05:48.821Z,11.65
2022-10-05T04:08:56.623Z,11.61
2022-10-05T04:12:04.195Z,11.62
2022-10-05T04:15:16.515Z,11.67
2022-10-05T04:18:15.310Z,11.68
2022-10-05T04:21:24.010Z,11.70
2022-10-05T04:24:32.371Z,11.68
2022-10-05T04:27:40.230Z,11.61
2022-10-05T04:30:47.969Z,11.62
2022-10-05T04:33:55.843Z,11.61
2022-10-05T04:37:03.388Z,11.56
2022-10-05T04:40:11.689Z,11.52
2022-10-05T04:43:19.002Z,11.44
2022-10-05T04:46:26.492Z,11.38
2022-10-05T04:49:34.764Z,11.36
2022-10-05T04:52:43.168Z,11.32
2022-10-05T04:55:50.656Z,11.36
2022-10-05T04:58:58.864Z,11.32
2022-10-05T05:02:06.939Z,11.29
2022-10-05T05:05:14.787Z,11.28
2022-10-05T05:08:23.043Z,11.29
2022-10-05T05:11:31.789Z,11.29
2022-10-05T05:14:39.669Z,11.34
2022-10-05T05:17:48.062Z,11.32
2022-10-05T05:20:56.020Z,11.31
2022-10-05T05:24:03.905Z,11.29
2022-10-05T05:27:11.969Z,11.34
2022-10-05T05:30:20.342Z,11.35
2022-10-05T05:33:28.562Z,11.36
2022-10-05T05:36:36.900Z,11.32
2022-10-05T05:39:45.064Z,11.29
2022-10-05T05:42:53.546Z,11.24
2022-10-05T05:46:01.665Z,11.21
2022-10-05T05:49:09.665Z,11.20
2022-10-05T05:52:17.518Z,11.20
2022-10-05T05:55:29.964Z,11.16
2022-10-05T05:58:27.507Z,11.16
2022-10-05T06:01:35.973Z,11.19
2022-10-05T06:04:45.290Z,11.24
2022-10-05T06:07:52.883Z,11.28
2022-10-05T06:11:01.000Z,11.28
2022-10-05T06:14:09.584Z,11.32
2022-10-05T06:17:17.183Z,11.34
2022-10-05T06:20:25.262Z,11.35
2022-10-05T06:23:33.208Z,11.35
2022-10-05T06:26:40.705Z,11.35
2022-10-05T06:29:49.325Z,11.39
2022-10-05T06:32:57.832Z,11.49
2022-10-05T06:36:05.397Z,11.53
2022-10-05T06:39:13.599Z,11.61
2022-10-05T06:42:21.538Z,11.78
2022-10-05T06:45:29.170Z,11.96
2022-10-05T06:48:37.321Z,12.15
2022-10-05T06:51:45.031Z,12.38
2022-10-05T06:54:52.776Z,12.64
2022-10-05T06:58:01.013Z,12.93
2022-10-05T07:01:08.681Z,13.24
2022-10-05T07:04:16.462Z,13.49
2022-10-05T07:07:24.112Z,13.70
2022-10-05T07:10:32.385Z,13.92
2022-10-05T07:13:40.175Z,14.04
2022-10-05T07:16:47.838Z,14.19
2022-10-05T07:19:55.667Z,14.21
2022-10-05T07:23:03.218Z,14.21
2022-10-05T07:26:11.018Z,14.21
2022-10-05T07:29:19.103Z,14.24
2022-10-05T07:32:26.455Z,14.28
2022-10-05T07:35:34.451Z,14.38
2022-10-05T07:38:42.173Z,14.50
2022-10-05T07:41:49.923Z,14.64
2022-10-05T07:44:57.915Z,14.86
2022-10-05T07:48:05.425Z,15.03
2022-10-05T07:51:13.186Z,15.26
2022-10-05T07:54:21.199Z,15.43
2022-10-05T07:57:28.466Z,15.56
2022-10-05T08:00:36.574Z,15.74
2022-10-05T08:03:44.210Z,15.88
2022-10-05T08:06:51.971Z,15.94
2022-10-05T08:09:59.801Z,15.97
2022-10-05T08:13:07.654Z,15.96
2022-10-05T08:16:15.540Z,15.96
2022-10-05T08:19:23.533Z,15.93
2022-10-05T08:22:31.248Z,15.94
2022-10-05T08:25:39.155Z,15.94
2022-10-05T08:28:47.275Z,15.89
2022-10-05T08:31:54.987Z,15.86
2022-10-05T08:35:02.751Z,15.85
2022-10-05T08:38:10.351Z,15.78
2022-10-05T08:41:18.400Z,15.79
2022-10-05T08:44:28.062Z,15.85
2022-10-05T08:47:35.741Z,15.78
2022-10-05T08:50:43.973Z,15.67
2022-10-05T08:53:51.855Z,15.52
2022-10-05T08:56:59.455Z,15.46
2022-10-05T09:00:07.003Z,15.43
2022-10-05T09:03:14.309Z,15.49
2022-10-05T09:06:22.397Z,15.64
2022-10-05T09:09:30.122Z,15.84
2022-10-05T09:12:37.546Z,16.00
2022-10-05T09:15:45.770Z,16.12
2022-10-05T09:18:53.342Z,16.25
2022-10-05T09:22:00.674Z,16.30
2022-10-05T09:25:08.915Z,16.37
2022-10-05T09:28:16.608Z,16.41
2022-10-05T09:31:24.203Z,16.50
2022-10-05T09:34:32.260Z,16.56
2022-10-05T09:37:39.486Z,16.74
2022-10-05T09:40:47.678Z,16.86
2022-10-05T09:43:55.536Z,16.92
2022-10-05T09:47:03.278Z,17.07
2022-10-05T09:50:11.218Z,17.32
2022-10-05T09:53:19.011Z,17.40
2022-10-05T09:59:35.313Z,17.40
2022-10-05T10:02:43.233Z,17.40
2022-10-05T10:05:51.002Z,17.38
2022-10-05T10:08:58.727Z,17.30
2022-10-05T10:12:06.807Z,17.32
2022-10-05T10:15:14.519Z,17.33
2022-10-05T10:18:22.078Z,17.44
2022-10-05T10:21:30.042Z,17.44
2022-10-05T10:24:37.613Z,17.44
2022-10-05T10:27:49.089Z,17.46
2022-10-05T10:30:48.983Z,17.53
2022-10-05T10:33:56.234Z,17.41
2022-10-05T10:37:04.334Z,17.41
2022-10-05T10:40:12.335Z,17.53
2022-10-05T10:43:19.646Z,17.59
2022-10-05T10:46:27.671Z,17.78
2022-10-05T10:49:35.618Z,17.88
2022-10-05T10:52:42.900Z,17.89
2022-10-05T10:55:50.911Z,17.92
2022-10-05T10:58:58.543Z,17.82
2022-10-05T11:02:06.373Z,17.76
2022-10-05T11:05:14.454Z,17.71
2022-10-05T11:08:22.054Z,17.79
2022-10-05T11:11:29.767Z,17.70
2022-10-05T11:14:38.197Z,17.53
2022-10-05T11:17:46.338Z,17.47
2022-10-05T11:20:54.319Z,17.44
2022-10-05T11:24:02.240Z,17.43
2022-10-05T11:27:10.717Z,17.41
2022-10-05T11:30:18.814Z,17.32
2022-10-05T11:33:26.603Z,17.41
2022-10-05T11:36:34.393Z,17.46
2022-10-05T11:39:41.974Z,17.30
2022-10-05T11:42:49.744Z,17.30
2022-10-05T11:45:58.119Z,17.35
2022-10-05T11:49:05.808Z,17.40
2022-10-05T11:52:14.258Z,17.43
2022-10-05T11:55:22.728Z,17.44
2022-10-05T11:58:30.344Z,17.57
2022-10-05T12:01:38.767Z,17.64
2022-10-05T12:04:47.314Z,17.63
2022-10-05T12:07:54.944Z,17.55
2022-10-05T12:11:03.606Z,17.55
2022-10-05T12:14:11.807Z,17.71
2022-10-05T12:17:19.755Z,17.73
2022-10-05T12:20:28.195Z,17.78
2022-10-05T12:23:36.297Z,17.71
2022-10-05T12:26:44.471Z,17.78
2022-10-05T12:29:52.938Z,17.76
2022-10-05T12:33:02.257Z,17.95
2022-10-05T12:36:10.555Z,18.17
2022-10-05T12:39:18.602Z,18.17
2022-10-05T12:42:26.906Z,18.15
2022-10-05T12:45:34.895Z,18.19
2022-10-05T12:48:42.937Z,18.17
2022-10-05T12:51:51.531Z,18.03
2022-10-05T12:54:59.670Z,17.84
2022-10-05T12:58:07.742Z,17.66
2022-10-05T13:01:16.300Z,17.70
2022-10-05T13:04:24.344Z,17.81
2022-10-05T13:07:32.442Z,17.59
2022-10-05T13:10:40.583Z,17.46
2022-10-05T13:13:48.317Z,17.33
2022-10-05T13:16:56.873Z,17.17
2022-10-05T13:20:05.149Z,17.07
2022-10-05T13:23:12.841Z,17.17
2022-10-05T13:26:21.330Z,17.15
2022-10-05T13:29:29.791Z,17.25
2022-10-05T13:32:37.521Z,17.41
2022-10-05T13:35:46.233Z,17.48
2022-10-05T13:38:53.844Z,17.54
2022-10-05T13:42:02.565Z,17.59
2022-10-05T13:45:10.958Z,17.64
2022-10-05T13:48:18.595Z,17.66
2022-10-05T13:51:27.230Z,17.64
2022-10-05T13:54:35.426Z,17.64
2022-10-05T13:57:43.611Z,17.66
2022-10-05T14:00:51.619Z,17.64
2022-10-05T14:03:59.713Z,17.62
2022-10-05T14:07:08.231Z,17.66
2022-10-05T14:10:16.282Z,17.74
2022-10-05T14:13:24.319Z,17.78
2022-10-05T14:16:32.573Z,17.84
2022-10-05T14:19:40.147Z,17.91
2022-10-05T14:22:48.657Z,17.95
2022-10-05T14:25:57.419Z,17.99
2022-10-05T14:29:05.140Z,18.02
2022-10-05T14:32:13.498Z,18.07
2022-10-05T14:35:21.774Z,18.15
2022-10-05T14:38:29.261Z,18.15
2022-10-05T14:41:37.766Z,18.21
2022-10-05T14:44:46.152Z,18.25
2022-10-05T14:47:53.682Z,18.28
2022-10-05T14:51:02.248Z,18.29
2022-10-05T14:54:10.188Z,18.33
2022-10-05T14:57:17.920Z,18.31
2022-10-05T15:00:26.199Z,18.39
2022-10-05T15:03:33.991Z,18.43
2022-10-05T15:06:41.464Z,18.42
2022-10-05T15:09:49.664Z,18.42
2022-10-05T15:12:57.550Z,18.39
2022-10-05T15:16:05.238Z,18.42
2022-10-05T15:19:12.740Z,18.37
2022-10-05T15:22:20.557Z,18.33
2022-10-05T15:25:28.116Z,18.29
2022-10-05T15:28:35.915Z,18.27
2022-10-05T15:31:43.792Z,18.21
2022-10-05T15:34:51.452Z,18.17
2022-10-05T15:37:59.074Z,18.10
2022-10-05T15:41:07.263Z,18.02
2022-10-05T15:44:14.741Z,17.91
2022-10-05T15:47:23.095Z,17.78
2022-10-05T15:50:31.447Z,17.64
2022-10-05T15:53:38.901Z,17.47
2022-10-05T15:56:47.237Z,17.40
2022-10-05T15:59:55.475Z,17.33
2022-10-05T16:03:03.120Z,17.26
2022-10-05T16:06:11.262Z,16.96
2022-10-05T16:09:19.234Z,16.78
2022-10-05T16:12:27.223Z,16.62
2022-10-05T16:15:35.381Z,16.44
2022-10-05T16:18:43.015Z,16.30
2022-10-05T16:21:50.926Z,16.15
2022-10-05T16:24:59.028Z,16.00
2022-10-05T16:28:07.087Z,15.82
2022-10-05T16:31:14.491Z,15.70
2022-10-05T16:34:22.013Z,15.56
2022-10-05T16:37:29.631Z,15.43
2022-10-05T16:40:37.228Z,15.24
2022-10-05T16:43:44.875Z,15.13
2022-10-05T16:46:52.802Z,15.05
2022-10-05T16:50:00.784Z,14.90
2022-10-05T16:53:08.097Z,14.78
2022-10-05T16:56:16.194Z,14.72
2022-10-05T16:59:24.215Z,14.62
2022-10-05T17:02:32.617Z,14.54
2022-10-05T17:05:40.219Z,14.50
2022-10-05T17:08:47.479Z,14.35
2022-10-05T17:11:55.371Z,14.25
2022-10-05T17:15:03.002Z,14.16
2022-10-05T17:18:10.829Z,14.10
2022-10-05T17:21:18.915Z,14.06
2022-10-05T17:24:26.335Z,13.98
2022-10-05T17:27:34.316Z,13.92
2022-10-05T17:30:42.465Z,14.02
2022-10-05T17:33:49.797Z,14.12
2022-10-05T17:36:57.875Z,14.21
2022-10-05T17:40:05.769Z,14.42
2022-10-05T17:43:13.292Z,14.57
2022-10-05T17:46:21.618Z,14.68
2022-10-05T17:49:29.393Z,14.80
2022-10-05T17:52:36.802Z,14.80
2022-10-05T17:55:44.745Z,14.75
2022-10-05T17:58:52.003Z,14.71
2022-10-05T18:02:00.285Z,14.78
2022-10-05T18:05:07.936Z,14.84
2022-10-05T18:08:15.359Z,14.95
2022-10-05T18:11:23.146Z,15.02
2022-10-05T18:14:30.659Z,15.19
2022-10-05T18:17:38.499Z,15.35
2022-10-05T18:20:48.375Z,15.46
2022-10-05T18:23:56.634Z,15.67
2022-10-05T18:27:04.471Z,15.89
2022-10-05T18:30:12.870Z,15.97
2022-10-05T18:33:20.406Z,16.04
2022-10-05T18:36:28.041Z,16.12
2022-10-05T18:39:35.875Z,16.20
2022-10-05T18:42:43.986Z,16.22
2022-10-05T18:45:51.915Z,16.20
2022-10-05T18:48:59.883Z,16.30
2022-10-05T18:52:08.721Z,16.40
2022-10-05T18:55:16.531Z,16.55
2022-10-05T18:58:24.603Z,16.50
2022-10-05T19:01:32.772Z,16.56
2022-10-05T19:04:40.447Z,16.52
2022-10-05T19:07:48.656Z,16.55
2022-10-05T19:10:57.037Z,16.53
2022-10-05T19:14:04.415Z,16.53
2022-10-05T19:17:12.633Z,16.50
2022-10-05T19:20:20.871Z,16.55
2022-10-05T19:23:28.800Z,16.55
2022-10-05T19:26:37.218Z,16.56
2022-10-05T19:29:44.800Z,16.56
2022-10-05T19:32:52.562Z,16.62
2022-10-05T19:36:00.393Z,16.60
2022-10-05T19:39:08.180Z,16.63
2022-10-05T19:42:15.884Z,16.56
2022-10-05T19:45:23.725Z,16.55
2022-10-05T19:48:32.055Z,16.52
2022-10-05T19:51:40.256Z,16.52
2022-10-05T19:54:48.078Z,16.45
2022-10-05T19:57:56.235Z,16.45
2022-10-05T20:01:03.571Z,16.44
2022-10-05T20:04:11.863Z,16.40
2022-10-05T20:07:19.942Z,16.27
2022-10-05T20:10:27.337Z,16.25
2022-10-05T20:13:35.531Z,16.22
2022-10-05T20:19:51.026Z,16.23
2022-10-05T20:22:59.207Z,16.18
2022-10-05T20:26:07.139Z,16.15
2022-10-05T20:29:14.949Z,16.22
2022-10-05T20:32:26.379Z,16.25
2022-10-05T20:35:25.665Z,16.30
2022-10-05T20:38:36.302Z,16.27
2022-10-05T20:41:37.428Z,16.30
2022-10-05T20:44:44.807Z,16.34
2022-10-05T20:47:52.837Z,16.40
2022-10-05T20:51:00.722Z,16.35
2022-10-05T20:54:08.913Z,16.38
2022-10-05T20:57:16.726Z,16.38
2022-10-05T21:00:24.595Z,16.45
2022-10-05T21:03:32.471Z,16.40
2022-10-05T21:06:40.305Z,16.35
2022-10-05T21:09:48.096Z,16.37
2022-10-05T21:12:56.318Z,16.37
2022-10-05T21:16:03.812Z,16.31
2022-10-05T21:19:12.170Z,16.31
2022-10-05T21:22:20.356Z,16.25
2022-10-05T21:25:27.815Z,16.22
2022-10-05T21:28:36.293Z,16.16
2022-10-05T21:31:44.570Z,16.11
2022-10-05T21:34:52.008Z,16.15
2022-10-05T21:38:00.448Z,16.25
2022-10-05T21:41:08.638Z,16.38
2022-10-05T21:44:16.238Z,16.42
2022-10-05T21:47:24.331Z,16.41
2022-10-05T21:50:32.139Z,16.35
2022-10-05T21:53:39.961Z,16.31
2022-10-05T21:56:47.844Z,16.31
2022-10-05T21:59:55.575Z,16.34
2022-10-05T22:03:02.935Z,16.38
2022-10-05T22:06:10.966Z,16.41
2022-10-05T22:09:18.914Z,16.41
2022-10-05T22:12:26.764Z,16.56
2022-10-05T22:15:34.558Z,16.59
2022-10-05T22:18:42.849Z,16.60
2022-10-05T22:21:50.700Z,16.59
2022-10-05T22:24:58.616Z,16.58
2022-10-05T22:28:06.546Z,16.59
2022-10-05T22:31:14.854Z,16.58
2022-10-05T22:34:22.709Z,16.58
2022-10-05T22:37:30.418Z,16.58
2022-10-05T22:40:38.405Z,16.59
2022-10-05T22:43:46.225Z,16.58
2022-10-05T22:46:54.144Z,16.56
2022-10-05T22:50:01.554Z,16.55
2022-10-05T22:53:09.514Z,16.59
2022-10-05T22:56:17.223Z,16.60
2022-10-05T22:59:24.907Z,16.62
2022-10-05T23:02:33.099Z,16.62
2022-10-05T23:05:40.863Z,16.60
2022-10-05T23:08:48.198Z,16.56
2022-10-05T23:11:56.271Z,16.52
2022-10-05T23:15:04.099Z,16.45
2022-10-05T23:18:11.950Z,16.26
2022-10-05T23:21:20.085Z,16.11
2022-10-05T23:24:27.614Z,16.00
2022-10-05T23:27:35.849Z,16.01
2022-10-05T23:30:43.918Z,16.07
2022-10-05T23:33:51.297Z,16.15
2022-10-05T23:36:59.528Z,16.23
2022-10-05T23:40:07.448Z,16.31
2022-10-05T23:43:14.811Z,16.38
2022-10-05T23:46:23.159Z,16.35
2022-10-05T23:49:31.174Z,16.41
2022-10-05T23:52:38.564Z,16.42
2022-10-05T23:55:46.625Z,16.45
2022-10-05T23:58:54.296Z,16.50
